Hoeven/Seppe, Netherlands
Current Conditions -  °F | °C
As of 9:25 AM on Sunday 23 Nov 2014 (Local Time) from EHWO Reporting Station
Clear Clear  
Wind Chill: 50°   Ceiling: Unl
Heat Index: 50°   Visibility: 6mi
Dew Point: 48°   Wind: 5mph
Humidity: 94%   Direction: 150°SSE
Pressure: 30"   Gusts: NA
Location:  51.55°N, 4.55°E
Report Text: EHWO 230825Z AUTO 15004KT 9999 NCD 10/09 Q1016 BLU
Loading
Personal Weather Stations






























Interactive Weather Map New forecast layout! Learn more

10-Day Weather Forecast

Advertisements
Track Severe Weather on mobile